Lorraine, New York
Current Conditions -  °F | °C
As of 5:56 AM on Wednesday 22 Oct 2014 (Local Time) from KART Reporting Station
Overcast Overcast  
Wind Chill: 40°   Ceiling: 1600
Heat Index: 46°   Visibility: 10mi
Dew Point: 36°   Wind: 15mph
Humidity: 68%   Direction: 30°NNE
Pressure: 30.14"   Gusts: NA
Location:  43.77°N, 75.96°W
Report Text: KART 220956Z AUTO 03013KT 10SM OVC016 08/02 A3014 RMK AO2 SLP208 T00780022
Loading
Personal Weather Stations






























Interactive Weather Map
Tropical Storm Tracking
New forecast layout! Learn more

10-Day Weather Forecast

Advertisements
Track Severe Weather on mobile